Terminal Aerodrome Forecast
Issued by NWS Twin Cities, MN

Home | Current Version | Previous Version | Graphics & Text | Print | Product List | Glossary On
Versions: 1 2 3 4 5 6 7 8 9 10 11 12 13 14
646
FTUS43 KMPX 111120
TAFEAU
TAF
KEAU 111120Z 1112/1212 VRB03KT P6SM SKC
     FM111700 24006KT P6SM BKN150
     FM120000 23004KT P6SM OVC050
     FM120400 28005KT P6SM BKN025
     FM121000 30007KT P6SM BKN050=

USA.gov is the U.S. government's official web portal to all federal, state and local government web resources and services.